VIR359 VABB-EGLL
Flight info
| Callsign | VIR359 |
|---|---|
| Flight time | N/A |
| Altitude | 36000 |
| Route | ANOLI2A ISRIS G208 APANO G451 AAE Z8 VIKIT P628 RK G202 ZB L750 RANAH B449 MAMED B450 SAPAR/N0493F380 B450 BIBIM A909 RODAR M11 MATAL DCT REBLO DCT DELEL UT167 NETPU UB111 TBN UM11 CRM UL746 ODERO L746 LUGEB DCT BUDOP/N0483F400 DCT BEGLA DCT DEXIT DCT INBED DCT BOMBI DCT ADKUV DCT SOGRI DCT DENUT L608 LOGAN |
| Aircraft | B789/H-SDE1E2E3FGHIJ2J3J4J5M1RWXY/LB1D1 |
Departure
| Time | 2026-05-06 21:22 |
|---|---|
| Airport | Chhatrapati Shivaji Maharaj International Airport (VABB) |
Arrival
| Time | N/A |
|---|---|
| Airport | London Heathrow Airport (EGLL) |
| Time | Latitude | Longitude | Altitude | Speed | Heading |
|---|---|---|---|---|---|
| 2026-05-06 21:14 | 19.09339 | 72.87268 | 47 ft | 0 kts | 306° |
| 2026-05-06 21:15 | 19.09332 | 72.87279 | 47 ft | 3 kts | 306° |
| 2026-05-06 21:15 | 19.09331 | 72.87280 | 47 ft | 0 kts | 306° |
| 2026-05-06 21:16 | 19.09322 | 72.87293 | 47 ft | 3 kts | 306° |
| 2026-05-06 21:16 | 19.09310 | 72.87310 | 47 ft | 3 kts | 306° |
| 2026-05-06 21:16 | 19.09298 | 72.87328 | 47 ft | 3 kts | 306° |
| 2026-05-06 21:17 | 19.09287 | 72.87345 | 47 ft | 3 kts | 285° |
| 2026-05-06 21:17 | 19.09290 | 72.87363 | 47 ft | 3 kts | 212° |
| 2026-05-06 21:17 | 19.09296 | 72.87366 | 47 ft | 0 kts | 186° |
| 2026-05-06 21:18 | 19.09295 | 72.87366 | 47 ft | 0 kts | 186° |
| 2026-05-06 21:18 | 19.09294 | 72.87366 | 47 ft | 0 kts | 186° |
| 2026-05-06 21:18 | 19.09293 | 72.87366 | 47 ft | 0 kts | 186° |
| 2026-05-06 21:19 | 19.09291 | 72.87365 | 47 ft | 0 kts | 186° |
| 2026-05-06 21:19 | 19.09288 | 72.87365 | 47 ft | 0 kts | 186° |
| 2026-05-06 21:19 | 19.09279 | 72.87363 | 47 ft | 8 kts | 193° |
| 2026-05-06 21:19 | 19.09243 | 72.87319 | 49 ft | 11 kts | 246° |
| 2026-05-06 21:20 | 19.09128 | 72.87265 | 49 ft | 20 kts | 178° |
| 2026-05-06 21:20 | 19.09059 | 72.87300 | 50 ft | 16 kts | 116° |
| 2026-05-06 21:20 | 19.09055 | 72.87589 | 49 ft | 49 kts | 89° |
| 2026-05-06 21:20 | 19.09058 | 72.87921 | 49 ft | 35 kts | 89° |
| 2026-05-06 21:21 | 19.09020 | 72.88051 | 47 ft | 10 kts | 168° |
| 2026-05-06 21:21 | 19.08947 | 72.88038 | 48 ft | 13 kts | 206° |
| 2026-05-06 21:21 | 19.08887 | 72.87966 | 47 ft | 12 kts | 260° |
| 2026-05-06 21:21 | 19.08885 | 72.87804 | 48 ft | 52 kts | 269° |
| 2026-05-06 21:22 | 19.08876 | 72.87151 | 52 ft | 124 kts | 269° |
| 2026-05-06 21:22 | 19.08862 | 72.86003 | 56 ft | 186 kts | 269° |
| 2026-05-06 21:22 | 19.08838 | 72.84538 | 375 ft | 216 kts | 271° |
| 2026-05-06 21:22 | 19.08774 | 72.82943 | 1229 ft | 215 kts | 268° |
| 2026-05-06 21:23 | 19.08778 | 72.81305 | 1709 ft | 232 kts | 274° |
| 2026-05-06 21:23 | 19.08807 | 72.80174 | 1862 ft | 251 kts | 272° |
| 2026-05-06 21:23 | 19.08920 | 72.78254 | 2300 ft | 266 kts | 290° |
| 2026-05-06 21:23 | 19.09959 | 72.76725 | 3118 ft | 261 kts | 328° |
| 2026-05-06 21:24 | 19.11638 | 72.76032 | 3816 ft | 262 kts | 352° |
| 2026-05-06 21:24 | 19.13455 | 72.76138 | 4582 ft | 265 kts | 9° |
| 2026-05-06 21:24 | 19.15296 | 72.76473 | 5271 ft | 271 kts | 8° |
| 2026-05-06 21:24 | 19.17187 | 72.76733 | 5998 ft | 277 kts | 4° |
| 2026-05-06 21:25 | 19.19131 | 72.76922 | 6699 ft | 282 kts | 4° |
| 2026-05-06 21:25 | 19.21099 | 72.77124 | 7377 ft | 288 kts | 5° |
| 2026-05-06 21:25 | 19.23106 | 72.77355 | 8067 ft | 292 kts | 6° |
| 2026-05-06 21:25 | 19.25122 | 72.77588 | 8778 ft | 296 kts | 6° |
| 2026-05-06 21:26 | 19.27201 | 72.77820 | 9493 ft | 300 kts | 7° |
| 2026-05-06 21:26 | 19.29274 | 72.78051 | 10015 ft | 310 kts | 7° |
| 2026-05-06 21:26 | 19.31543 | 72.78307 | 10067 ft | 338 kts | 7° |
| 2026-05-06 21:26 | 19.33962 | 72.78579 | 10103 ft | 362 kts | 7° |
| 2026-05-06 21:27 | 19.36558 | 72.78869 | 10168 ft | 385 kts | 7° |
| 2026-05-06 21:27 | 19.39224 | 72.79167 | 10613 ft | 391 kts | 7° |
| 2026-05-06 21:27 | 19.41932 | 72.79471 | 11220 ft | 394 kts | 6° |
| 2026-05-06 21:27 | 19.44677 | 72.79780 | 11785 ft | 398 kts | 6° |
| 2026-05-06 21:28 | 19.47435 | 72.80090 | 12362 ft | 401 kts | 6° |
| 2026-05-06 21:28 | 19.50224 | 72.80404 | 12958 ft | 404 kts | 6° |
| 2026-05-06 21:28 | 19.53032 | 72.80720 | 13545 ft | 408 kts | 6° |
| 2026-05-06 21:28 | 19.55863 | 72.81038 | 14083 ft | 410 kts | 6° |
| 2026-05-06 21:29 | 19.58715 | 72.81359 | 14672 ft | 411 kts | 6° |
| 2026-05-06 21:29 | 19.61566 | 72.81680 | 15211 ft | 413 kts | 5° |
| 2026-05-06 21:29 | 19.64431 | 72.82002 | 15771 ft | 415 kts | 5° |
| 2026-05-06 21:29 | 19.67309 | 72.82327 | 16285 ft | 417 kts | 5° |
| 2026-05-06 21:30 | 19.70203 | 72.82653 | 16789 ft | 419 kts | 5° |
| 2026-05-06 21:30 | 19.73111 | 72.82981 | 17292 ft | 421 kts | 5° |
| 2026-05-06 21:30 | 19.76032 | 72.83311 | 17746 ft | 423 kts | 4° |
| 2026-05-06 21:30 | 19.78970 | 72.83642 | 18168 ft | 425 kts | 4° |
| 2026-05-06 21:31 | 19.81918 | 72.83974 | 18542 ft | 427 kts | 4° |
| 2026-05-06 21:31 | 19.84875 | 72.84308 | 18918 ft | 429 kts | 4° |
| 2026-05-06 21:31 | 19.87847 | 72.84644 | 19298 ft | 430 kts | 4° |
| 2026-05-06 21:31 | 19.90797 | 72.84977 | 19643 ft | 432 kts | 3° |
| 2026-05-06 21:32 | 19.93799 | 72.85317 | 20008 ft | 434 kts | 3° |
| 2026-05-06 21:32 | 19.99855 | 72.86001 | 20672 ft | 438 kts | 3° |
| 2026-05-06 21:32 | 20.02900 | 72.86346 | 21022 ft | 439 kts | 2° |
| 2026-05-06 21:33 | 20.05938 | 72.86690 | 21336 ft | 441 kts | 2° |
| 2026-05-06 21:33 | 20.09005 | 72.87038 | 21649 ft | 443 kts | 2° |
| 2026-05-06 21:33 | 20.12075 | 72.87385 | 21943 ft | 445 kts | 2° |
| 2026-05-06 21:33 | 20.15125 | 72.87731 | 22230 ft | 446 kts | 2° |
| 2026-05-06 21:34 | 20.18220 | 72.88082 | 22527 ft | 448 kts | 2° |
| 2026-05-06 21:34 | 20.21323 | 72.88434 | 22803 ft | 450 kts | 2° |
| 2026-05-06 21:34 | 20.24447 | 72.88788 | 23078 ft | 452 kts | 2° |
| 2026-05-06 21:34 | 20.27582 | 72.89144 | 23329 ft | 453 kts | 1° |
| 2026-05-06 21:35 | 20.30726 | 72.89502 | 23550 ft | 455 kts | 1° |
| 2026-05-06 21:35 | 20.33874 | 72.89860 | 23758 ft | 456 kts | 1° |
| 2026-05-06 21:35 | 20.37040 | 72.90219 | 23945 ft | 458 kts | 2° |
| 2026-05-06 21:35 | 20.40217 | 72.90581 | 24149 ft | 459 kts | 2° |
| 2026-05-06 21:36 | 20.43398 | 72.90943 | 24347 ft | 461 kts | 2° |
| 2026-05-06 21:36 | 20.46586 | 72.91305 | 24534 ft | 462 kts | 2° |
| 2026-05-06 21:36 | 20.49790 | 72.91670 | 24731 ft | 463 kts | 2° |
| 2026-05-06 21:36 | 20.53003 | 72.92036 | 24918 ft | 465 kts | 2° |
| 2026-05-06 21:37 | 20.56219 | 72.92403 | 25106 ft | 466 kts | 2° |
| 2026-05-06 21:37 | 20.59451 | 72.92771 | 25301 ft | 467 kts | 2° |
| 2026-05-06 21:37 | 20.62649 | 72.93136 | 25474 ft | 469 kts | 2° |
| 2026-05-06 21:37 | 20.65898 | 72.93507 | 25669 ft | 470 kts | 2° |
| 2026-05-06 21:38 | 20.69151 | 72.93878 | 25860 ft | 471 kts | 2° |
| 2026-05-06 21:38 | 20.72416 | 72.94251 | 26048 ft | 472 kts | 2° |
| 2026-05-06 21:38 | 20.75696 | 72.94618 | 26241 ft | 473 kts | 0° |
| 2026-05-06 21:38 | 20.78983 | 72.94746 | 26377 ft | 472 kts | 358° |
| 2026-05-06 21:39 | 20.82271 | 72.94865 | 26578 ft | 473 kts | 358° |
| 2026-05-06 21:39 | 20.85572 | 72.94997 | 26768 ft | 475 kts | 358° |
| 2026-05-06 21:39 | 20.88879 | 72.95120 | 26964 ft | 476 kts | 358° |
| 2026-05-06 21:39 | 20.92188 | 72.95235 | 27146 ft | 477 kts | 358° |
| 2026-05-06 21:40 | 20.95519 | 72.95354 | 27336 ft | 478 kts | 358° |
| 2026-05-06 21:40 | 20.98845 | 72.95479 | 27533 ft | 480 kts | 358° |
| 2026-05-06 21:40 | 21.02194 | 72.95602 | 27725 ft | 481 kts | 358° |
| 2026-05-06 21:40 | 21.05545 | 72.95723 | 27918 ft | 482 kts | 358° |
| 2026-05-06 21:41 | 21.08896 | 72.95845 | 28108 ft | 484 kts | 358° |
| 2026-05-06 21:41 | 21.12236 | 72.95968 | 28317 ft | 485 kts | 358° |
| 2026-05-06 21:41 | 21.15618 | 72.96092 | 28519 ft | 486 kts | 358° |
| 2026-05-06 21:41 | 21.19003 | 72.96216 | 28714 ft | 488 kts | 358° |